sensor_id;sensor_type;location;lat;lon;timestamp;temperature;humidity
28959;DHT22;16066;0.000;0.000;2023-11-21T06:32:33;20.30;49.20
28959;DHT22;16066;0.000;0.000;2023-11-21T06:34:59;20.30;48.80
28959;DHT22;16066;0.000;0.000;2023-11-21T06:37:26;20.40;48.80
28959;DHT22;16066;0.000;0.000;2023-11-21T06:39:52;20.40;48.50
28959;DHT22;16066;0.000;0.000;2023-11-21T06:42:19;20.50;48.20
28959;DHT22;16066;0.000;0.000;2023-11-21T06:44:48;20.60;48.00
28959;DHT22;16066;0.000;0.000;2023-11-21T06:47:14;20.70;47.80
28959;DHT22;16066;0.000;0.000;2023-11-21T06:49:42;20.70;47.70
28959;DHT22;16066;0.000;0.000;2023-11-21T06:52:08;20.70;47.70
28959;DHT22;16066;0.000;0.000;2023-11-21T06:54:33;20.70;47.70
28959;DHT22;16066;0.000;0.000;2023-11-21T06:57:00;20.70;48.20
28959;DHT22;16066;0.000;0.000;2023-11-21T06:59:25;20.60;47.70
28959;DHT22;16066;0.000;0.000;2023-11-21T07:01:51;20.60;47.70
28959;DHT22;16066;0.000;0.000;2023-11-21T07:04:16;20.60;47.90
28959;DHT22;16066;0.000;0.000;2023-11-21T07:06:43;20.60;48.00
28959;DHT22;16066;0.000;0.000;2023-11-21T07:09:09;20.50;47.90
28959;DHT22;16066;0.000;0.000;2023-11-21T07:11:37;20.50;48.10
28959;DHT22;16066;0.000;0.000;2023-11-21T07:14:03;20.50;48.20
28959;DHT22;16066;0.000;0.000;2023-11-21T07:16:36;20.40;48.10
28959;DHT22;16066;0.000;0.000;2023-11-21T07:19:03;20.40;48.30
28959;DHT22;16066;0.000;0.000;2023-11-21T07:21:34;20.30;48.30
28959;DHT22;16066;0.000;0.000;2023-11-21T07:24:01;20.30;48.40
28959;DHT22;16066;0.000;0.000;2023-11-21T07:26:27;20.20;48.30
28959;DHT22;16066;0.000;0.000;2023-11-21T07:28:53;20.30;48.50
28959;DHT22;16066;0.000;0.000;2023-11-21T07:31:19;20.20;48.70
28959;DHT22;16066;0.000;0.000;2023-11-21T07:33:46;20.20;48.70
28959;DHT22;16066;0.000;0.000;2023-11-21T07:36:15;20.20;48.60
28959;DHT22;16066;0.000;0.000;2023-11-21T07:38:42;20.10;48.50
28959;DHT22;16066;0.000;0.000;2023-11-21T07:41:07;20.10;48.70
28959;DHT22;16066;0.000;0.000;2023-11-21T07:43:36;20.10;48.70
28959;DHT22;16066;0.000;0.000;2023-11-21T07:46:02;20.10;48.80
28959;DHT22;16066;0.000;0.000;2023-11-21T07:48:32;20.10;48.80
28959;DHT22;16066;0.000;0.000;2023-11-21T07:50:58;20.10;48.90
28959;DHT22;16066;0.000;0.000;2023-11-21T07:53:24;20.10;48.90
28959;DHT22;16066;0.000;0.000;2023-11-21T07:55:55;20.00;48.90
28959;DHT22;16066;0.000;0.000;2023-11-21T07:58:21;20.00;49.00
28959;DHT22;16066;0.000;0.000;2023-11-21T08:00:46;20.10;49.20
28959;DHT22;16066;0.000;0.000;2023-11-21T08:03:13;20.00;48.90
28959;DHT22;16066;0.000;0.000;2023-11-21T08:05:39;20.00;49.20
28959;DHT22;16066;0.000;0.000;2023-11-21T08:08:05;20.00;49.30
28959;DHT22;16066;0.000;0.000;2023-11-21T08:10:30;20.00;49.50
28959;DHT22;16066;0.000;0.000;2023-11-21T08:12:56;20.00;49.60
28959;DHT22;16066;0.000;0.000;2023-11-21T08:15:21;19.90;49.60
28959;DHT22;16066;0.000;0.000;2023-11-21T08:17:47;19.90;49.60
28959;DHT22;16066;0.000;0.000;2023-11-21T08:20:14;19.90;49.60
28959;DHT22;16066;0.000;0.000;2023-11-21T08:22:43;19.90;49.80
28959;DHT22;16066;0.000;0.000;2023-11-21T08:25:09;20.00;49.90
28959;DHT22;16066;0.000;0.000;2023-11-21T08:27:34;20.00;49.90
28959;DHT22;16066;0.000;0.000;2023-11-21T08:30:03;20.00;50.00
28959;DHT22;16066;0.000;0.000;2023-11-21T08:32:29;20.00;50.00
28959;DHT22;16066;0.000;0.000;2023-11-21T08:34:58;20.00;49.90
28959;DHT22;16066;0.000;0.000;2023-11-21T08:37:24;20.10;49.80
28959;DHT22;16066;0.000;0.000;2023-11-21T08:39:52;20.10;49.80
28959;DHT22;16066;0.000;0.000;2023-11-21T08:42:18;20.20;49.60
28959;DHT22;16066;0.000;0.000;2023-11-21T08:44:44;20.10;49.70
28959;DHT22;16066;0.000;0.000;2023-11-21T08:47:10;20.20;49.70
28959;DHT22;16066;0.000;0.000;2023-11-21T08:49:35;20.20;49.50
28959;DHT22;16066;0.000;0.000;2023-11-21T08:52:01;20.20;49.50
28959;DHT22;16066;0.000;0.000;2023-11-21T08:54:27;20.20;49.50
28959;DHT22;16066;0.000;0.000;2023-11-21T08:56:53;20.20;49.50
28959;DHT22;16066;0.000;0.000;2023-11-21T08:59:20;20.30;49.60
28959;DHT22;16066;0.000;0.000;2023-11-21T09:01:46;20.20;49.40
28959;DHT22;16066;0.000;0.000;2023-11-21T09:04:12;20.30;49.60
28959;DHT22;16066;0.000;0.000;2023-11-21T09:06:39;20.20;49.40
28959;DHT22;16066;0.000;0.000;2023-11-21T09:09:05;20.30;49.40
28959;DHT22;16066;0.000;0.000;2023-11-21T09:11:34;20.30;49.50
28959;DHT22;16066;0.000;0.000;2023-11-21T09:14:01;20.30;49.50
28959;DHT22;16066;0.000;0.000;2023-11-21T09:16:26;20.20;49.50
28959;DHT22;16066;0.000;0.000;2023-11-21T09:18:52;20.20;49.30
28959;DHT22;16066;0.000;0.000;2023-11-21T09:21:18;20.30;49.30
28959;DHT22;16066;0.000;0.000;2023-11-21T09:23:47;20.30;49.40
28959;DHT22;16066;0.000;0.000;2023-11-21T09:26:13;20.30;49.40
28959;DHT22;16066;0.000;0.000;2023-11-21T09:28:41;20.20;49.40
28959;DHT22;16066;0.000;0.000;2023-11-21T09:31:11;20.20;49.70
28959;DHT22;16066;0.000;0.000;2023-11-21T09:33:37;20.30;49.80
28959;DHT22;16066;0.000;0.000;2023-11-21T09:36:04;20.30;49.90
28959;DHT22;16066;0.000;0.000;2023-11-21T09:38:30;20.30;50.20
28959;DHT22;16066;0.000;0.000;2023-11-21T09:40:56;20.30;50.20
28959;DHT22;16066;0.000;0.000;2023-11-21T09:43:24;20.30;50.30
28959;DHT22;16066;0.000;0.000;2023-11-21T09:45:58;20.30;50.40
28959;DHT22;16066;0.000;0.000;2023-11-21T09:48:26;20.30;50.30
28959;DHT22;16066;0.000;0.000;2023-11-21T09:50:53;20.30;50.30
28959;DHT22;16066;0.000;0.000;2023-11-21T09:53:20;20.30;50.20
28959;DHT22;16066;0.000;0.000;2023-11-21T09:55:48;20.20;50.10
28959;DHT22;16066;0.000;0.000;2023-11-21T09:58:14;20.30;50.30
28959;DHT22;16066;0.000;0.000;2023-11-21T10:00:42;20.20;50.10
28959;DHT22;16066;0.000;0.000;2023-11-21T10:03:08;20.20;50.20
28959;DHT22;16066;0.000;0.000;2023-11-21T10:05:35;20.20;50.40
28959;DHT22;16066;0.000;0.000;2023-11-21T10:08:00;20.20;50.30
28959;DHT22;16066;0.000;0.000;2023-11-21T10:10:27;20.20;50.30
28959;DHT22;16066;0.000;0.000;2023-11-21T10:12:57;20.20;50.40
28959;DHT22;16066;0.000;0.000;2023-11-21T10:15:27;20.20;50.70
28959;DHT22;16066;0.000;0.000;2023-11-21T10:17:53;20.10;50.80
28959;DHT22;16066;0.000;0.000;2023-11-21T10:20:20;20.10;50.40
28959;DHT22;16066;0.000;0.000;2023-11-21T10:22:46;20.10;50.50
28959;DHT22;16066;0.000;0.000;2023-11-21T10:25:12;20.10;50.40
28959;DHT22;16066;0.000;0.000;2023-11-21T10:27:40;20.20;50.30
28959;DHT22;16066;0.000;0.000;2023-11-21T10:30:10;20.20;50.40
28959;DHT22;16066;0.000;0.000;2023-11-21T10:32:39;20.20;50.40
28959;DHT22;16066;0.000;0.000;2023-11-21T10:35:06;20.20;50.50
28959;DHT22;16066;0.000;0.000;2023-11-21T10:37:39;20.20;50.60
28959;DHT22;16066;0.000;0.000;2023-11-21T10:40:06;20.20;50.60
28959;DHT22;16066;0.000;0.000;2023-11-21T10:42:33;20.20;50.40
28959;DHT22;16066;0.000;0.000;2023-11-21T10:44:59;20.20;50.40
28959;DHT22;16066;0.000;0.000;2023-11-21T10:47:26;20.20;50.40
28959;DHT22;16066;0.000;0.000;2023-11-21T10:49:52;20.20;50.40
28959;DHT22;16066;0.000;0.000;2023-11-21T10:52:19;20.20;50.30
28959;DHT22;16066;0.000;0.000;2023-11-21T10:54:46;20.20;50.50
28959;DHT22;16066;0.000;0.000;2023-11-21T10:57:16;20.20;50.40
28959;DHT22;16066;0.000;0.000;2023-11-21T10:59:45;20.10;50.40
28959;DHT22;16066;0.000;0.000;2023-11-21T11:02:23;20.10;50.40
28959;DHT22;16066;0.000;0.000;2023-11-21T11:04:52;20.10;50.50
28959;DHT22;16066;0.000;0.000;2023-11-21T11:07:17;20.10;50.60
28959;DHT22;16066;0.000;0.000;2023-11-21T11:09:44;20.10;50.50
28959;DHT22;16066;0.000;0.000;2023-11-21T11:12:11;20.10;50.60
28959;DHT22;16066;0.000;0.000;2023-11-21T11:14:40;20.10;50.60
28959;DHT22;16066;0.000;0.000;2023-11-21T11:17:07;20.10;50.50
28959;DHT22;16066;0.000;0.000;2023-11-21T11:19:34;20.10;50.50
28959;DHT22;16066;0.000;0.000;2023-11-21T11:22:18;20.20;50.60
28959;DHT22;16066;0.000;0.000;2023-11-21T11:27:54;20.20;50.60
28959;DHT22;16066;0.000;0.000;2023-11-21T11:33:46;20.20;50.40
28959;DHT22;16066;0.000;0.000;2023-11-21T11:37:21;20.20;50.70
28959;DHT22;16066;0.000;0.000;2023-11-21T11:39:48;20.20;50.70
28959;DHT22;16066;0.000;0.000;2023-11-21T11:42:16;20.20;50.40
28959;DHT22;16066;0.000;0.000;2023-11-21T11:47:31;20.20;50.50
28959;DHT22;16066;0.000;0.000;2023-11-21T11:50:12;20.10;50.20
28959;DHT22;16066;0.000;0.000;2023-11-21T11:52:49;20.10;50.30
28959;DHT22;16066;0.000;0.000;2023-11-21T11:55:18;20.10;50.60
28959;DHT22;16066;0.000;0.000;2023-11-21T11:57:46;20.10;50.40
28959;DHT22;16066;0.000;0.000;2023-11-21T12:02:57;20.20;50.60
28959;DHT22;16066;0.000;0.000;2023-11-21T12:05:25;20.10;50.20
28959;DHT22;16066;0.000;0.000;2023-11-21T12:07:57;20.10;50.20
28959;DHT22;16066;0.000;0.000;2023-11-21T12:10:30;20.10;50.30
28959;DHT22;16066;0.000;0.000;2023-11-21T12:12:57;20.10;50.50
28959;DHT22;16066;0.000;0.000;2023-11-21T12:15:23;20.10;50.60
28959;DHT22;16066;0.000;0.000;2023-11-21T12:17:50;20.10;50.50
28959;DHT22;16066;0.000;0.000;2023-11-21T12:20:21;20.10;50.60
28959;DHT22;16066;0.000;0.000;2023-11-21T12:22:51;20.10;50.60
28959;DHT22;16066;0.000;0.000;2023-11-21T12:25:18;20.10;50.70
28959;DHT22;16066;0.000;0.000;2023-11-21T12:27:48;20.10;50.80
28959;DHT22;16066;0.000;0.000;2023-11-21T12:30:18;20.10;50.70
28959;DHT22;16066;0.000;0.000;2023-11-21T12:32:45;20.00;50.60
28959;DHT22;16066;0.000;0.000;2023-11-21T12:35:13;20.00;50.90
28959;DHT22;16066;0.000;0.000;2023-11-21T12:37:39;20.00;50.60
28959;DHT22;16066;0.000;0.000;2023-11-21T12:40:06;20.00;50.70
28959;DHT22;16066;0.000;0.000;2023-11-21T12:42:33;20.00;51.40
28959;DHT22;16066;0.000;0.000;2023-11-21T12:45:10;20.00;51.90
28959;DHT22;16066;0.000;0.000;2023-11-21T12:47:44;20.00;51.10
28959;DHT22;16066;0.000;0.000;2023-11-21T12:50:10;20.10;50.70
28959;DHT22;16066;0.000;0.000;2023-11-21T12:52:43;20.10;50.60
28959;DHT22;16066;0.000;0.000;2023-11-21T12:55:14;20.10;50.60
28959;DHT22;16066;0.000;0.000;2023-11-21T12:57:42;20.00;50.40
28959;DHT22;16066;0.000;0.000;2023-11-21T13:00:08;20.00;51.00
28959;DHT22;16066;0.000;0.000;2023-11-21T13:02:40;20.00;50.50
28959;DHT22;16066;0.000;0.000;2023-11-21T13:05:07;19.90;50.50
28959;DHT22;16066;0.000;0.000;2023-11-21T13:07:44;19.90;50.60
28959;DHT22;16066;0.000;0.000;2023-11-21T13:10:12;19.90;50.60
28959;DHT22;16066;0.000;0.000;2023-11-21T13:12:46;19.90;50.60
28959;DHT22;16066;0.000;0.000;2023-11-21T13:15:17;19.90;50.50
28959;DHT22;16066;0.000;0.000;2023-11-21T13:17:43;19.90;50.40
28959;DHT22;16066;0.000;0.000;2023-11-21T13:20:10;19.90;50.60
28959;DHT22;16066;0.000;0.000;2023-11-21T13:22:46;19.90;50.60
28959;DHT22;16066;0.000;0.000;2023-11-21T13:25:11;19.80;50.60
28959;DHT22;16066;0.000;0.000;2023-11-21T13:27:37;19.80;50.60
28959;DHT22;16066;0.000;0.000;2023-11-21T13:30:03;19.80;50.70
28959;DHT22;16066;0.000;0.000;2023-11-21T13:32:29;19.80;50.60
28959;DHT22;16066;0.000;0.000;2023-11-21T13:34:57;19.80;50.60
28959;DHT22;16066;0.000;0.000;2023-11-21T13:37:25;19.80;50.80
28959;DHT22;16066;0.000;0.000;2023-11-21T13:39:53;19.80;50.80
28959;DHT22;16066;0.000;0.000;2023-11-21T13:42:20;19.80;51.00
28959;DHT22;16066;0.000;0.000;2023-11-21T13:44:56;19.80;50.90
28959;DHT22;16066;0.000;0.000;2023-11-21T13:47:22;19.80;50.80
28959;DHT22;16066;0.000;0.000;2023-11-21T13:49:50;19.80;50.80
28959;DHT22;16066;0.000;0.000;2023-11-21T13:52:16;19.80;50.70
28959;DHT22;16066;0.000;0.000;2023-11-21T13:54:42;19.80;50.80
28959;DHT22;16066;0.000;0.000;2023-11-21T13:57:08;19.80;50.70
28959;DHT22;16066;0.000;0.000;2023-11-21T13:59:35;19.80;50.80
28959;DHT22;16066;0.000;0.000;2023-11-21T14:02:02;19.80;50.80
28959;DHT22;16066;0.000;0.000;2023-11-21T14:04:42;19.90;50.50
28959;DHT22;16066;0.000;0.000;2023-11-21T14:07:23;19.90;50.30
28959;DHT22;16066;0.000;0.000;2023-11-21T14:10:03;19.90;50.50
28959;DHT22;16066;0.000;0.000;2023-11-21T14:12:31;19.90;50.50
28959;DHT22;16066;0.000;0.000;2023-11-21T14:15:00;19.90;50.60
28959;DHT22;16066;0.000;0.000;2023-11-21T14:17:28;19.90;50.60
28959;DHT22;16066;0.000;0.000;2023-11-21T14:19:54;19.90;50.70
28959;DHT22;16066;0.000;0.000;2023-11-21T14:22:21;19.90;50.60
28959;DHT22;16066;0.000;0.000;2023-11-21T14:24:47;19.90;50.40
28959;DHT22;16066;0.000;0.000;2023-11-21T14:27:13;19.90;50.40
28959;DHT22;16066;0.000;0.000;2023-11-21T14:29:40;19.90;50.40
28959;DHT22;16066;0.000;0.000;2023-11-21T14:32:09;19.90;50.20
28959;DHT22;16066;0.000;0.000;2023-11-21T14:34:34;19.90;50.30
28959;DHT22;16066;0.000;0.000;2023-11-21T14:37:00;19.90;50.60
28959;DHT22;16066;0.000;0.000;2023-11-21T14:39:28;19.90;50.60
28959;DHT22;16066;0.000;0.000;2023-11-21T14:41:54;19.90;51.10
28959;DHT22;16066;0.000;0.000;2023-11-21T14:44:24;19.90;51.50
28959;DHT22;16066;0.000;0.000;2023-11-21T14:46:53;19.90;51.10
28959;DHT22;16066;0.000;0.000;2023-11-21T14:49:20;20.00;50.70
28959;DHT22;16066;0.000;0.000;2023-11-21T14:51:48;20.00;50.50
28959;DHT22;16066;0.000;0.000;2023-11-21T14:54:33;20.10;50.60
28959;DHT22;16066;0.000;0.000;2023-11-21T14:57:09;20.00;50.30
28959;DHT22;16066;0.000;0.000;2023-11-21T14:59:37;20.10;50.20
28959;DHT22;16066;0.000;0.000;2023-11-21T15:02:03;20.10;50.20
28959;DHT22;16066;0.000;0.000;2023-11-21T15:04:54;20.10;50.20
28959;DHT22;16066;0.000;0.000;2023-11-21T15:07:26;20.10;49.90
28959;DHT22;16066;0.000;0.000;2023-11-21T15:09:52;20.10;49.90
28959;DHT22;16066;0.000;0.000;2023-11-21T15:12:19;20.20;50.10
28959;DHT22;16066;0.000;0.000;2023-11-21T15:14:49;20.20;50.00
28959;DHT22;16066;0.000;0.000;2023-11-21T15:17:18;20.10;50.00
28959;DHT22;16066;0.000;0.000;2023-11-21T15:19:55;20.10;49.90
28959;DHT22;16066;0.000;0.000;2023-11-21T15:22:21;20.20;50.10
28959;DHT22;16066;0.000;0.000;2023-11-21T15:24:47;20.20;49.70
28959;DHT22;16066;0.000;0.000;2023-11-21T15:27:15;20.20;49.80
28959;DHT22;16066;0.000;0.000;2023-11-21T15:29:44;20.20;49.90
28959;DHT22;16066;0.000;0.000;2023-11-21T15:32:10;20.20;49.60
28959;DHT22;16066;0.000;0.000;2023-11-21T15:34:36;20.20;49.60
28959;DHT22;16066;0.000;0.000;2023-11-21T15:37:03;20.20;49.50
28959;DHT22;16066;0.000;0.000;2023-11-21T15:39:30;20.20;49.30
28959;DHT22;16066;0.000;0.000;2023-11-21T15:41:59;20.20;49.30
28959;DHT22;16066;0.000;0.000;2023-11-21T15:44:25;20.20;49.30
28959;DHT22;16066;0.000;0.000;2023-11-21T15:46:55;20.20;49.20
28959;DHT22;16066;0.000;0.000;2023-11-21T15:49:21;20.20;49.30
28959;DHT22;16066;0.000;0.000;2023-11-21T15:51:49;20.20;49.30
28959;DHT22;16066;0.000;0.000;2023-11-21T15:54:25;20.20;49.20
28959;DHT22;16066;0.000;0.000;2023-11-21T15:56:52;20.10;49.30
28959;DHT22;16066;0.000;0.000;2023-11-21T15:59:18;20.20;49.30
28959;DHT22;16066;0.000;0.000;2023-11-21T16:01:44;20.10;49.40
28959;DHT22;16066;0.000;0.000;2023-11-21T16:04:13;20.10;49.20
28959;DHT22;16066;0.000;0.000;2023-11-21T16:06:45;20.10;49.40
28959;DHT22;16066;0.000;0.000;2023-11-21T16:09:12;20.10;49.60
28959;DHT22;16066;0.000;0.000;2023-11-21T16:11:50;20.10;49.10
28959;DHT22;16066;0.000;0.000;2023-11-21T16:14:19;20.10;49.60
28959;DHT22;16066;0.000;0.000;2023-11-21T16:16:49;20.20;49.50
28959;DHT22;16066;0.000;0.000;2023-11-21T16:19:15;20.20;49.50
28959;DHT22;16066;0.000;0.000;2023-11-21T16:21:40;20.20;49.30
28959;DHT22;16066;0.000;0.000;2023-11-21T16:24:06;20.20;49.70
28959;DHT22;16066;0.000;0.000;2023-11-21T16:26:32;20.30;49.50
28959;DHT22;16066;0.000;0.000;2023-11-21T16:28:57;20.30;50.20
28959;DHT22;16066;0.000;0.000;2023-11-21T16:31:23;20.30;50.40
28959;DHT22;16066;0.000;0.000;2023-11-21T16:33:49;20.30;49.60
28959;DHT22;16066;0.000;0.000;2023-11-21T16:36:15;20.30;49.60
28959;DHT22;16066;0.000;0.000;2023-11-21T16:38:40;20.30;49.80
28959;DHT22;16066;0.000;0.000;2023-11-21T16:41:06;20.40;50.00
28959;DHT22;16066;0.000;0.000;2023-11-21T16:43:33;20.40;49.80
28959;DHT22;16066;0.000;0.000;2023-11-21T16:45:59;20.40;49.10
28959;DHT22;16066;0.000;0.000;2023-11-21T16:48:24;20.40;49.20
28959;DHT22;16066;0.000;0.000;2023-11-21T16:50:50;20.40;49.10
28959;DHT22;16066;0.000;0.000;2023-11-21T16:53:15;20.40;49.10
28959;DHT22;16066;0.000;0.000;2023-11-21T16:55:41;20.40;49.00
28959;DHT22;16066;0.000;0.000;2023-11-21T16:58:07;20.40;49.00
28959;DHT22;16066;0.000;0.000;2023-11-21T17:00:32;20.40;48.90
28959;DHT22;16066;0.000;0.000;2023-11-21T17:02:59;20.40;49.10
28959;DHT22;16066;0.000;0.000;2023-11-21T17:05:24;20.30;48.70
28959;DHT22;16066;0.000;0.000;2023-11-21T17:07:50;20.30;48.70
28959;DHT22;16066;0.000;0.000;2023-11-21T17:10:17;20.20;48.70
28959;DHT22;16066;0.000;0.000;2023-11-21T17:12:44;20.20;48.50
28959;DHT22;16066;0.000;0.000;2023-11-21T17:15:10;20.20;48.80
28959;DHT22;16066;0.000;0.000;2023-11-21T17:17:36;20.20;49.30
28959;DHT22;16066;0.000;0.000;2023-11-21T17:20:02;20.10;49.70
28959;DHT22;16066;0.000;0.000;2023-11-21T17:22:33;20.10;50.20
28959;DHT22;16066;0.000;0.000;2023-11-21T17:24:59;20.10;50.00
28959;DHT22;16066;0.000;0.000;2023-11-21T17:27:25;20.10;49.40
28959;DHT22;16066;0.000;0.000;2023-11-21T17:29:51;20.10;49.10
28959;DHT22;16066;0.000;0.000;2023-11-21T17:32:16;20.10;49.40
28959;DHT22;16066;0.000;0.000;2023-11-21T17:34:42;20.20;49.60
28959;DHT22;16066;0.000;0.000;2023-11-21T17:37:07;20.30;50.20
28959;DHT22;16066;0.000;0.000;2023-11-21T17:39:33;20.30;50.60
28959;DHT22;16066;0.000;0.000;2023-11-21T17:41:59;20.30;50.10
28959;DHT22;16066;0.000;0.000;2023-11-21T17:44:27;20.40;49.60
28959;DHT22;16066;0.000;0.000;2023-11-21T17:46:52;20.40;49.70
28959;DHT22;16066;0.000;0.000;2023-11-21T17:49:18;20.50;49.50
28959;DHT22;16066;0.000;0.000;2023-11-21T17:51:43;20.50;49.20
28959;DHT22;16066;0.000;0.000;2023-11-21T17:54:09;20.50;49.40
28959;DHT22;16066;0.000;0.000;2023-11-21T17:56:34;20.40;49.50
28959;DHT22;16066;0.000;0.000;2023-11-21T17:59:01;20.40;50.00
28959;DHT22;16066;0.000;0.000;2023-11-21T18:01:28;20.50;50.00
28959;DHT22;16066;0.000;0.000;2023-11-21T18:03:59;20.50;49.50
28959;DHT22;16066;0.000;0.000;2023-11-21T18:06:25;20.60;49.30
28959;DHT22;16066;0.000;0.000;2023-11-21T18:08:50;20.60;49.30
28959;DHT22;16066;0.000;0.000;2023-11-21T18:11:16;20.60;49.40
28959;DHT22;16066;0.000;0.000;2023-11-21T18:13:42;20.60;49.50
28959;DHT22;16066;0.000;0.000;2023-11-21T18:16:07;20.60;49.00
28959;DHT22;16066;0.000;0.000;2023-11-21T18:18:33;20.60;49.60
28959;DHT22;16066;0.000;0.000;2023-11-21T18:21:00;20.60;49.60
28959;DHT22;16066;0.000;0.000;2023-11-21T18:23:25;20.50;50.00
28959;DHT22;16066;0.000;0.000;2023-11-21T18:25:51;20.50;49.70
28959;DHT22;16066;0.000;0.000;2023-11-21T18:28:17;20.60;50.00
28959;DHT22;16066;0.000;0.000;2023-11-21T18:30:42;20.60;50.90
28959;DHT22;16066;0.000;0.000;2023-11-21T18:33:08;20.60;50.80
28959;DHT22;16066;0.000;0.000;2023-11-21T18:35:35;20.60;51.10
28959;DHT22;16066;0.000;0.000;2023-11-21T18:38:01;20.60;50.40
28959;DHT22;16066;0.000;0.000;2023-11-21T18:40:27;20.60;49.10
28959;DHT22;16066;0.000;0.000;2023-11-21T18:42:54;20.60;48.80
28959;DHT22;16066;0.000;0.000;2023-11-21T18:45:19;20.60;48.80
28959;DHT22;16066;0.000;0.000;2023-11-21T18:47:45;20.50;48.90
28959;DHT22;16066;0.000;0.000;2023-11-21T18:50:13;20.50;48.60
28959;DHT22;16066;0.000;0.000;2023-11-21T18:52:42;20.50;49.50
28959;DHT22;16066;0.000;0.000;2023-11-21T18:55:08;20.40;49.00
28959;DHT22;16066;0.000;0.000;2023-11-21T18:57:33;20.40;48.70
28959;DHT22;16066;0.000;0.000;2023-11-21T18:59:59;20.40;48.90
28959;DHT22;16066;0.000;0.000;2023-11-21T19:02:25;20.30;49.40
28959;DHT22;16066;0.000;0.000;2023-11-21T19:04:51;20.30;49.20
28959;DHT22;16066;0.000;0.000;2023-11-21T19:07:16;20.20;48.70
28959;DHT22;16066;0.000;0.000;2023-11-21T19:09:44;20.20;48.60
28959;DHT22;16066;0.000;0.000;2023-11-21T19:12:09;20.10;49.10
28959;DHT22;16066;0.000;0.000;2023-11-21T19:14:38;20.10;49.30
28959;DHT22;16066;0.000;0.000;2023-11-21T19:17:04;20.10;48.60
28959;DHT22;16066;0.000;0.000;2023-11-21T19:19:30;20.00;48.90
28959;DHT22;16066;0.000;0.000;2023-11-21T19:21:56;20.00;48.80
28959;DHT22;16066;0.000;0.000;2023-11-21T19:24:21;19.90;49.30
28959;DHT22;16066;0.000;0.000;2023-11-21T19:26:47;19.90;49.80
28959;DHT22;16066;0.000;0.000;2023-11-21T19:29:12;19.90;50.40
28959;DHT22;16066;0.000;0.000;2023-11-21T19:31:38;19.90;49.90
28959;DHT22;16066;0.000;0.000;2023-11-21T19:34:03;19.90;49.90
28959;DHT22;16066;0.000;0.000;2023-11-21T19:36:30;19.90;48.90
28959;DHT22;16066;0.000;0.000;2023-11-21T19:38:55;19.90;48.30
28959;DHT22;16066;0.000;0.000;2023-11-21T19:41:21;19.90;48.60
28959;DHT22;16066;0.000;0.000;2023-11-21T19:43:49;19.80;48.50
28959;DHT22;16066;0.000;0.000;2023-11-21T19:46:15;19.70;48.40
28959;DHT22;16066;0.000;0.000;2023-11-21T19:48:41;19.70;48.70
28959;DHT22;16066;0.000;0.000;2023-11-21T19:51:10;19.60;48.80
28959;DHT22;16066;0.000;0.000;2023-11-21T19:53:39;19.50;49.10
28959;DHT22;16066;0.000;0.000;2023-11-21T19:56:05;19.50;48.70
28959;DHT22;16066;0.000;0.000;2023-11-21T19:58:35;19.50;49.60
28959;DHT22;16066;0.000;0.000;2023-11-21T20:01:01;19.40;49.00
28959;DHT22;16066;0.000;0.000;2023-11-21T20:03:26;19.40;49.00
28959;DHT22;16066;0.000;0.000;2023-11-21T20:05:53;19.40;49.10
28959;DHT22;16066;0.000;0.000;2023-11-21T20:08:19;19.30;49.10
28959;DHT22;16066;0.000;0.000;2023-11-21T20:10:44;19.30;48.90
28959;DHT22;16066;0.000;0.000;2023-11-21T20:13:14;19.20;49.10
28959;DHT22;16066;0.000;0.000;2023-11-21T20:15:42;19.20;49.50
28959;DHT22;16066;0.000;0.000;2023-11-21T20:18:08;19.20;49.70
28959;DHT22;16066;0.000;0.000;2023-11-21T20:20:36;19.20;49.40
28959;DHT22;16066;0.000;0.000;2023-11-21T20:23:01;19.20;49.30
28959;DHT22;16066;0.000;0.000;2023-11-21T20:25:28;19.30;49.30
28959;DHT22;16066;0.000;0.000;2023-11-21T20:27:54;19.30;49.20
28959;DHT22;16066;0.000;0.000;2023-11-21T20:30:20;19.30;49.40
28959;DHT22;16066;0.000;0.000;2023-11-21T20:32:48;19.30;48.90
28959;DHT22;16066;0.000;0.000;2023-11-21T20:35:18;19.30;48.80
28959;DHT22;16066;0.000;0.000;2023-11-21T20:37:46;19.30;49.20
28959;DHT22;16066;0.000;0.000;2023-11-21T20:40:12;19.30;49.00
28959;DHT22;16066;0.000;0.000;2023-11-21T20:42:38;19.20;49.50
28959;DHT22;16066;0.000;0.000;2023-11-21T20:45:08;19.20;49.30
28959;DHT22;16066;0.000;0.000;2023-11-21T20:47:35;19.20;48.70
28959;DHT22;16066;0.000;0.000;2023-11-21T20:50:02;19.20;48.70
28959;DHT22;16066;0.000;0.000;2023-11-21T20:52:28;19.20;49.00
28959;DHT22;16066;0.000;0.000;2023-11-21T20:54:54;19.20;49.10
28959;DHT22;16066;0.000;0.000;2023-11-21T20:57:21;19.20;49.30
28959;DHT22;16066;0.000;0.000;2023-11-21T20:59:46;19.10;49.20
28959;DHT22;16066;0.000;0.000;2023-11-21T21:02:14;19.10;49.50
28959;DHT22;16066;0.000;0.000;2023-11-21T21:04:40;19.10;49.70
28959;DHT22;16066;0.000;0.000;2023-11-21T21:07:05;19.10;49.00
28959;DHT22;16066;0.000;0.000;2023-11-21T21:09:31;19.10;49.30
28959;DHT22;16066;0.000;0.000;2023-11-21T21:11:58;19.10;49.40
28959;DHT22;16066;0.000;0.000;2023-11-21T21:14:23;19.10;48.90
28959;DHT22;16066;0.000;0.000;2023-11-21T21:16:52;19.00;49.70
28959;DHT22;16066;0.000;0.000;2023-11-21T21:19:17;19.10;51.70
28959;DHT22;16066;0.000;0.000;2023-11-21T21:21:43;19.10;52.10
28959;DHT22;16066;0.000;0.000;2023-11-21T21:24:09;19.20;52.10
28959;DHT22;16066;0.000;0.000;2023-11-21T21:26:35;19.30;50.30
28959;DHT22;16066;0.000;0.000;2023-11-21T21:29:00;19.40;48.60
28959;DHT22;16066;0.000;0.000;2023-11-21T21:31:26;19.30;48.00
28959;DHT22;16066;0.000;0.000;2023-11-21T21:33:52;19.30;48.30
28959;DHT22;16066;0.000;0.000;2023-11-21T21:36:17;19.20;48.30
28959;DHT22;16066;0.000;0.000;2023-11-21T21:38:45;19.20;48.40
28959;DHT22;16066;0.000;0.000;2023-11-21T21:41:11;19.10;48.20
28959;DHT22;16066;0.000;0.000;2023-11-21T21:43:37;19.10;48.30
28959;DHT22;16066;0.000;0.000;2023-11-21T21:46:04;19.00;48.50
28959;DHT22;16066;0.000;0.000;2023-11-21T21:48:30;19.00;48.80
28959;DHT22;16066;0.000;0.000;2023-11-21T21:50:56;18.90;48.60
28959;DHT22;16066;0.000;0.000;2023-11-21T21:53:22;18.90;48.90
28959;DHT22;16066;0.000;0.000;2023-11-21T21:55:48;18.80;49.30
28959;DHT22;16066;0.000;0.000;2023-11-21T21:58:16;18.80;49.10
28959;DHT22;16066;0.000;0.000;2023-11-21T22:00:42;18.80;48.60
28959;DHT22;16066;0.000;0.000;2023-11-21T22:03:07;18.70;48.50
28959;DHT22;16066;0.000;0.000;2023-11-21T22:05:34;18.60;48.60
28959;DHT22;16066;0.000;0.000;2023-11-21T22:08:00;18.50;48.60
28959;DHT22;16066;0.000;0.000;2023-11-21T22:10:26;18.50;48.70
28959;DHT22;16066;0.000;0.000;2023-11-21T22:12:51;18.50;48.80
28959;DHT22;16066;0.000;0.000;2023-11-21T22:15:20;18.40;48.70
28959;DHT22;16066;0.000;0.000;2023-11-21T22:17:46;18.30;49.00
28959;DHT22;16066;0.000;0.000;2023-11-21T22:20:12;18.30;48.90
28959;DHT22;16066;0.000;0.000;2023-11-21T22:22:38;18.30;49.40
28959;DHT22;16066;0.000;0.000;2023-11-21T22:25:06;18.30;49.60
28959;DHT22;16066;0.000;0.000;2023-11-21T22:27:32;18.30;49.20
28959;DHT22;16066;0.000;0.000;2023-11-21T22:29:58;18.20;49.50